sensor_id;sensor_type;location;lat;lon;timestamp;temperature;humidity
4811;DHT22;2419;51.276;6.472;2023-07-16T00:00:56;17.90;99.90
4811;DHT22;2419;51.276;6.472;2023-07-16T00:03:24;17.90;99.90
4811;DHT22;2419;51.276;6.472;2023-07-16T00:05:52;17.90;99.90
4811;DHT22;2419;51.276;6.472;2023-07-16T00:08:21;17.90;99.90
4811;DHT22;2419;51.276;6.472;2023-07-16T00:10:51;17.70;99.90
4811;DHT22;2419;51.276;6.472;2023-07-16T00:13:19;17.70;99.90
4811;DHT22;2419;51.276;6.472;2023-07-16T00:15:47;17.70;99.90
4811;DHT22;2419;51.276;6.472;2023-07-16T00:18:15;17.60;99.90
4811;DHT22;2419;51.276;6.472;2023-07-16T00:20:44;17.60;99.90
4811;DHT22;2419;51.276;6.472;2023-07-16T00:23:12;17.60;99.90
4811;DHT22;2419;51.276;6.472;2023-07-16T00:25:40;17.60;99.90
4811;DHT22;2419;51.276;6.472;2023-07-16T00:28:10;17.60;99.90
4811;DHT22;2419;51.276;6.472;2023-07-16T00:30:39;17.60;99.90
4811;DHT22;2419;51.276;6.472;2023-07-16T00:33:08;17.50;99.90
4811;DHT22;2419;51.276;6.472;2023-07-16T00:35:36;17.60;99.90
4811;DHT22;2419;51.276;6.472;2023-07-16T00:38:04;17.50;99.90
4811;DHT22;2419;51.276;6.472;2023-07-16T00:40:32;17.50;99.90
4811;DHT22;2419;51.276;6.472;2023-07-16T00:43:00;17.40;99.90
4811;DHT22;2419;51.276;6.472;2023-07-16T00:45:30;17.40;99.90
4811;DHT22;2419;51.276;6.472;2023-07-16T00:47:59;17.30;99.90
4811;DHT22;2419;51.276;6.472;2023-07-16T00:50:27;17.30;99.90
4811;DHT22;2419;51.276;6.472;2023-07-16T00:53:01;17.30;99.90
4811;DHT22;2419;51.276;6.472;2023-07-16T00:55:30;17.30;99.90
4811;DHT22;2419;51.276;6.472;2023-07-16T00:58:01;17.30;99.90
4811;DHT22;2419;51.276;6.472;2023-07-16T01:00:34;17.30;99.90
4811;DHT22;2419;51.276;6.472;2023-07-16T01:03:05;17.30;99.90
4811;DHT22;2419;51.276;6.472;2023-07-16T01:05:38;17.20;99.90
4811;DHT22;2419;51.276;6.472;2023-07-16T01:08:11;17.20;99.90
4811;DHT22;2419;51.276;6.472;2023-07-16T01:10:42;17.20;99.90
4811;DHT22;2419;51.276;6.472;2023-07-16T01:13:10;17.20;99.90
4811;DHT22;2419;51.276;6.472;2023-07-16T01:15:40;17.20;99.90
4811;DHT22;2419;51.276;6.472;2023-07-16T01:18:08;17.10;99.90
4811;DHT22;2419;51.276;6.472;2023-07-16T01:20:37;17.10;99.90
4811;DHT22;2419;51.276;6.472;2023-07-16T01:23:22;17.10;99.90
4811;DHT22;2419;51.276;6.472;2023-07-16T01:26:06;17.10;99.90
4811;DHT22;2419;51.276;6.472;2023-07-16T01:28:52;17.10;99.90
4811;DHT22;2419;51.276;6.472;2023-07-16T01:31:23;17.10;99.90
4811;DHT22;2419;51.276;6.472;2023-07-16T01:33:54;17.10;99.90
4811;DHT22;2419;51.276;6.472;2023-07-16T01:36:24;17.10;99.90
4811;DHT22;2419;51.276;6.472;2023-07-16T01:38:54;17.10;99.90
4811;DHT22;2419;51.276;6.472;2023-07-16T01:41:22;17.00;99.90
4811;DHT22;2419;51.276;6.472;2023-07-16T01:43:51;17.00;99.90
4811;DHT22;2419;51.276;6.472;2023-07-16T01:46:20;17.00;99.90
4811;DHT22;2419;51.276;6.472;2023-07-16T01:48:49;17.00;99.90
4811;DHT22;2419;51.276;6.472;2023-07-16T01:51:18;17.00;99.90
4811;DHT22;2419;51.276;6.472;2023-07-16T01:53:47;17.00;99.90
4811;DHT22;2419;51.276;6.472;2023-07-16T01:56:18;16.90;99.90
4811;DHT22;2419;51.276;6.472;2023-07-16T01:58:47;16.90;99.90
4811;DHT22;2419;51.276;6.472;2023-07-16T02:01:17;16.90;99.90
4811;DHT22;2419;51.276;6.472;2023-07-16T02:03:46;16.90;99.90
4811;DHT22;2419;51.276;6.472;2023-07-16T02:06:15;16.90;99.90
4811;DHT22;2419;51.276;6.472;2023-07-16T02:08:48;16.80;99.90
4811;DHT22;2419;51.276;6.472;2023-07-16T02:11:17;16.90;99.90
4811;DHT22;2419;51.276;6.472;2023-07-16T02:13:49;16.80;99.90
4811;DHT22;2419;51.276;6.472;2023-07-16T02:16:17;16.80;99.90
4811;DHT22;2419;51.276;6.472;2023-07-16T02:18:45;16.80;99.90
4811;DHT22;2419;51.276;6.472;2023-07-16T02:21:15;16.70;99.90
4811;DHT22;2419;51.276;6.472;2023-07-16T02:23:43;16.70;99.90
4811;DHT22;2419;51.276;6.472;2023-07-16T02:26:12;16.70;99.90
4811;DHT22;2419;51.276;6.472;2023-07-16T02:28:42;16.70;99.90
4811;DHT22;2419;51.276;6.472;2023-07-16T02:31:10;16.70;99.90
4811;DHT22;2419;51.276;6.472;2023-07-16T02:33:40;16.70;99.90
4811;DHT22;2419;51.276;6.472;2023-07-16T02:36:09;16.70;99.90
4811;DHT22;2419;51.276;6.472;2023-07-16T02:38:38;16.80;99.90
4811;DHT22;2419;51.276;6.472;2023-07-16T02:41:07;16.70;99.90
4811;DHT22;2419;51.276;6.472;2023-07-16T02:43:35;16.70;99.90
4811;DHT22;2419;51.276;6.472;2023-07-16T02:46:04;16.70;99.90
4811;DHT22;2419;51.276;6.472;2023-07-16T02:48:32;16.70;99.90
4811;DHT22;2419;51.276;6.472;2023-07-16T02:51:01;16.70;99.90
4811;DHT22;2419;51.276;6.472;2023-07-16T02:53:30;16.80;99.90
4811;DHT22;2419;51.276;6.472;2023-07-16T02:55:59;16.80;99.90
4811;DHT22;2419;51.276;6.472;2023-07-16T02:58:28;16.70;99.90
4811;DHT22;2419;51.276;6.472;2023-07-16T03:00:56;16.70;99.90
4811;DHT22;2419;51.276;6.472;2023-07-16T03:03:25;16.80;99.90
4811;DHT22;2419;51.276;6.472;2023-07-16T03:06:01;16.80;99.90
4811;DHT22;2419;51.276;6.472;2023-07-16T03:08:30;16.80;99.90
4811;DHT22;2419;51.276;6.472;2023-07-16T03:11:00;16.80;99.90
4811;DHT22;2419;51.276;6.472;2023-07-16T03:13:29;16.90;99.90
4811;DHT22;2419;51.276;6.472;2023-07-16T03:15:57;16.90;99.90
4811;DHT22;2419;51.276;6.472;2023-07-16T03:18:28;16.80;99.90
4811;DHT22;2419;51.276;6.472;2023-07-16T03:20:57;16.80;99.90
4811;DHT22;2419;51.276;6.472;2023-07-16T03:23:26;16.80;99.90
4811;DHT22;2419;51.276;6.472;2023-07-16T03:25:54;16.80;99.90
4811;DHT22;2419;51.276;6.472;2023-07-16T03:28:24;16.70;99.90
4811;DHT22;2419;51.276;6.472;2023-07-16T03:30:53;16.70;99.90
4811;DHT22;2419;51.276;6.472;2023-07-16T03:33:21;16.70;99.90
4811;DHT22;2419;51.276;6.472;2023-07-16T03:35:50;16.70;99.90
4811;DHT22;2419;51.276;6.472;2023-07-16T03:38:19;16.60;99.90
4811;DHT22;2419;51.276;6.472;2023-07-16T03:40:49;16.60;99.90
4811;DHT22;2419;51.276;6.472;2023-07-16T03:43:18;16.60;99.90
4811;DHT22;2419;51.276;6.472;2023-07-16T03:45:51;16.50;99.90
4811;DHT22;2419;51.276;6.472;2023-07-16T03:48:20;16.50;99.90
4811;DHT22;2419;51.276;6.472;2023-07-16T03:50:48;16.60;99.90
4811;DHT22;2419;51.276;6.472;2023-07-16T03:53:16;16.60;99.90
4811;DHT22;2419;51.276;6.472;2023-07-16T03:55:45;16.50;99.90
4811;DHT22;2419;51.276;6.472;2023-07-16T03:58:14;16.60;99.90
4811;DHT22;2419;51.276;6.472;2023-07-16T04:00:42;16.60;99.90
4811;DHT22;2419;51.276;6.472;2023-07-16T04:03:13;16.50;99.90
4811;DHT22;2419;51.276;6.472;2023-07-16T04:05:41;16.60;99.90
4811;DHT22;2419;51.276;6.472;2023-07-16T04:08:10;16.50;99.90
4811;DHT22;2419;51.276;6.472;2023-07-16T04:10:38;16.50;99.90
4811;DHT22;2419;51.276;6.472;2023-07-16T04:13:06;16.50;99.90
4811;DHT22;2419;51.276;6.472;2023-07-16T04:15:35;16.50;99.90
4811;DHT22;2419;51.276;6.472;2023-07-16T04:18:03;16.50;99.90
4811;DHT22;2419;51.276;6.472;2023-07-16T04:20:33;16.50;99.90
4811;DHT22;2419;51.276;6.472;2023-07-16T04:23:01;16.40;99.90
4811;DHT22;2419;51.276;6.472;2023-07-16T04:25:30;16.60;99.90
4811;DHT22;2419;51.276;6.472;2023-07-16T04:27:58;16.60;99.90
4811;DHT22;2419;51.276;6.472;2023-07-16T04:30:26;16.60;99.90
4811;DHT22;2419;51.276;6.472;2023-07-16T04:32:55;16.60;99.90
4811;DHT22;2419;51.276;6.472;2023-07-16T04:35:23;16.70;99.90
4811;DHT22;2419;51.276;6.472;2023-07-16T04:37:53;16.70;99.90
4811;DHT22;2419;51.276;6.472;2023-07-16T04:40:21;16.70;99.90
4811;DHT22;2419;51.276;6.472;2023-07-16T04:42:50;16.70;99.90
4811;DHT22;2419;51.276;6.472;2023-07-16T04:45:18;16.80;99.90
4811;DHT22;2419;51.276;6.472;2023-07-16T04:47:46;16.90;99.90
4811;DHT22;2419;51.276;6.472;2023-07-16T04:50:15;16.90;99.90
4811;DHT22;2419;51.276;6.472;2023-07-16T04:52:43;17.00;99.90
4811;DHT22;2419;51.276;6.472;2023-07-16T04:55:13;17.10;99.90
4811;DHT22;2419;51.276;6.472;2023-07-16T04:57:41;17.10;99.90
4811;DHT22;2419;51.276;6.472;2023-07-16T05:00:10;17.10;99.90
4811;DHT22;2419;51.276;6.472;2023-07-16T05:02:38;17.20;99.90
4811;DHT22;2419;51.276;6.472;2023-07-16T05:05:07;17.20;99.90
4811;DHT22;2419;51.276;6.472;2023-07-16T05:07:35;17.20;99.90
4811;DHT22;2419;51.276;6.472;2023-07-16T05:10:04;17.20;99.90
4811;DHT22;2419;51.276;6.472;2023-07-16T05:12:34;17.40;99.90
4811;DHT22;2419;51.276;6.472;2023-07-16T05:15:02;17.60;99.90
4811;DHT22;2419;51.276;6.472;2023-07-16T05:17:30;17.80;99.90
4811;DHT22;2419;51.276;6.472;2023-07-16T05:19:59;18.00;99.90
4811;DHT22;2419;51.276;6.472;2023-07-16T05:22:27;18.00;99.90
4811;DHT22;2419;51.276;6.472;2023-07-16T05:24:55;18.10;99.90
4811;DHT22;2419;51.276;6.472;2023-07-16T05:27:24;18.10;99.90
4811;DHT22;2419;51.276;6.472;2023-07-16T05:29:53;18.00;99.90
4811;DHT22;2419;51.276;6.472;2023-07-16T05:32:22;18.00;99.90
4811;DHT22;2419;51.276;6.472;2023-07-16T05:34:50;18.00;99.90
4811;DHT22;2419;51.276;6.472;2023-07-16T05:37:19;17.80;99.90
4811;DHT22;2419;51.276;6.472;2023-07-16T05:39:47;17.80;99.90
4811;DHT22;2419;51.276;6.472;2023-07-16T05:42:15;17.90;99.90
4811;DHT22;2419;51.276;6.472;2023-07-16T05:44:44;18.00;99.90
4811;DHT22;2419;51.276;6.472;2023-07-16T05:47:16;17.90;99.90
4811;DHT22;2419;51.276;6.472;2023-07-16T05:49:45;17.80;99.90
4811;DHT22;2419;51.276;6.472;2023-07-16T05:52:13;17.90;99.90
4811;DHT22;2419;51.276;6.472;2023-07-16T05:54:43;17.90;99.90
4811;DHT22;2419;51.276;6.472;2023-07-16T05:57:12;17.90;99.90
4811;DHT22;2419;51.276;6.472;2023-07-16T05:59:40;17.90;99.90
4811;DHT22;2419;51.276;6.472;2023-07-16T06:02:09;17.90;99.90
4811;DHT22;2419;51.276;6.472;2023-07-16T06:04:39;17.90;99.90
4811;DHT22;2419;51.276;6.472;2023-07-16T06:07:07;17.90;99.90
4811;DHT22;2419;51.276;6.472;2023-07-16T06:09:35;17.90;99.90
4811;DHT22;2419;51.276;6.472;2023-07-16T06:12:04;18.10;99.90
4811;DHT22;2419;51.276;6.472;2023-07-16T06:14:32;18.10;99.90
4811;DHT22;2419;51.276;6.472;2023-07-16T06:17:00;18.10;99.90
4811;DHT22;2419;51.276;6.472;2023-07-16T06:19:29;18.10;99.90
4811;DHT22;2419;51.276;6.472;2023-07-16T06:21:59;18.10;99.90
4811;DHT22;2419;51.276;6.472;2023-07-16T06:24:28;18.10;99.90
4811;DHT22;2419;51.276;6.472;2023-07-16T06:26:56;18.20;99.90
4811;DHT22;2419;51.276;6.472;2023-07-16T06:29:24;18.20;99.90
4811;DHT22;2419;51.276;6.472;2023-07-16T06:31:55;18.30;99.90
4811;DHT22;2419;51.276;6.472;2023-07-16T06:34:24;18.40;99.90
4811;DHT22;2419;51.276;6.472;2023-07-16T06:36:53;18.30;99.90
4811;DHT22;2419;51.276;6.472;2023-07-16T06:39:23;18.30;99.90
4811;DHT22;2419;51.276;6.472;2023-07-16T06:41:51;18.30;99.90
4811;DHT22;2419;51.276;6.472;2023-07-16T06:44:22;18.30;99.90
4811;DHT22;2419;51.276;6.472;2023-07-16T06:46:50;18.30;99.90
4811;DHT22;2419;51.276;6.472;2023-07-16T06:49:19;18.20;99.90
4811;DHT22;2419;51.276;6.472;2023-07-16T06:51:48;18.30;99.90
4811;DHT22;2419;51.276;6.472;2023-07-16T06:54:16;18.40;99.90
4811;DHT22;2419;51.276;6.472;2023-07-16T06:56:46;18.40;99.90
4811;DHT22;2419;51.276;6.472;2023-07-16T06:59:14;18.50;99.90
4811;DHT22;2419;51.276;6.472;2023-07-16T07:01:42;18.50;99.90
4811;DHT22;2419;51.276;6.472;2023-07-16T07:04:11;18.40;99.90
4811;DHT22;2419;51.276;6.472;2023-07-16T07:06:39;18.50;99.90
4811;DHT22;2419;51.276;6.472;2023-07-16T07:09:07;18.50;99.90
4811;DHT22;2419;51.276;6.472;2023-07-16T07:11:35;18.60;99.90
4811;DHT22;2419;51.276;6.472;2023-07-16T07:14:05;18.70;99.90
4811;DHT22;2419;51.276;6.472;2023-07-16T07:16:36;18.70;99.90
4811;DHT22;2419;51.276;6.472;2023-07-16T07:19:08;18.70;99.90
4811;DHT22;2419;51.276;6.472;2023-07-16T07:21:38;18.60;99.90
4811;DHT22;2419;51.276;6.472;2023-07-16T07:24:06;18.70;99.90
4811;DHT22;2419;51.276;6.472;2023-07-16T07:26:35;18.80;99.90
4811;DHT22;2419;51.276;6.472;2023-07-16T07:29:04;18.90;99.90
4811;DHT22;2419;51.276;6.472;2023-07-16T07:31:33;19.10;99.90
4811;DHT22;2419;51.276;6.472;2023-07-16T07:34:01;19.10;99.90
4811;DHT22;2419;51.276;6.472;2023-07-16T07:36:29;19.10;99.90
4811;DHT22;2419;51.276;6.472;2023-07-16T07:38:58;19.10;99.90
4811;DHT22;2419;51.276;6.472;2023-07-16T07:41:26;19.10;99.90
4811;DHT22;2419;51.276;6.472;2023-07-16T07:43:54;19.10;99.90
4811;DHT22;2419;51.276;6.472;2023-07-16T07:46:24;19.00;99.90
4811;DHT22;2419;51.276;6.472;2023-07-16T07:48:52;19.10;99.90
4811;DHT22;2419;51.276;6.472;2023-07-16T07:51:21;19.20;99.90
4811;DHT22;2419;51.276;6.472;2023-07-16T07:53:50;19.20;99.90
4811;DHT22;2419;51.276;6.472;2023-07-16T07:56:18;19.20;99.90
4811;DHT22;2419;51.276;6.472;2023-07-16T07:58:47;19.30;99.90
4811;DHT22;2419;51.276;6.472;2023-07-16T08:01:15;19.30;99.90
4811;DHT22;2419;51.276;6.472;2023-07-16T08:03:45;19.40;99.90
4811;DHT22;2419;51.276;6.472;2023-07-16T08:06:13;19.40;99.90
4811;DHT22;2419;51.276;6.472;2023-07-16T08:08:42;19.40;99.90
4811;DHT22;2419;51.276;6.472;2023-07-16T08:11:10;19.50;99.90
4811;DHT22;2419;51.276;6.472;2023-07-16T08:13:39;19.60;99.90
4811;DHT22;2419;51.276;6.472;2023-07-16T08:16:07;19.70;99.90
4811;DHT22;2419;51.276;6.472;2023-07-16T08:18:36;20.00;99.90
4811;DHT22;2419;51.276;6.472;2023-07-16T08:21:06;19.90;99.90
4811;DHT22;2419;51.276;6.472;2023-07-16T08:23:35;20.20;99.90
4811;DHT22;2419;51.276;6.472;2023-07-16T08:26:04;20.10;99.90
4811;DHT22;2419;51.276;6.472;2023-07-16T08:28:32;20.10;99.90
4811;DHT22;2419;51.276;6.472;2023-07-16T08:31:00;20.00;99.90
4811;DHT22;2419;51.276;6.472;2023-07-16T08:33:29;20.10;99.90
4811;DHT22;2419;51.276;6.472;2023-07-16T08:35:57;20.20;99.90
4811;DHT22;2419;51.276;6.472;2023-07-16T08:38:27;19.90;99.90
4811;DHT22;2419;51.276;6.472;2023-07-16T08:40:55;19.80;99.90
4811;DHT22;2419;51.276;6.472;2023-07-16T08:43:24;19.90;99.90
4811;DHT22;2419;51.276;6.472;2023-07-16T08:45:52;19.90;99.90
4811;DHT22;2419;51.276;6.472;2023-07-16T08:48:22;19.80;99.90
4811;DHT22;2419;51.276;6.472;2023-07-16T08:50:50;19.70;99.90
4811;DHT22;2419;51.276;6.472;2023-07-16T08:53:19;19.90;99.90
4811;DHT22;2419;51.276;6.472;2023-07-16T08:55:49;19.90;99.90
4811;DHT22;2419;51.276;6.472;2023-07-16T08:58:23;20.00;99.90
4811;DHT22;2419;51.276;6.472;2023-07-16T09:00:52;20.00;99.90
4811;DHT22;2419;51.276;6.472;2023-07-16T09:03:20;20.00;99.90
4811;DHT22;2419;51.276;6.472;2023-07-16T09:05:49;20.10;99.90
4811;DHT22;2419;51.276;6.472;2023-07-16T09:08:17;20.20;99.90
4811;DHT22;2419;51.276;6.472;2023-07-16T09:10:54;20.30;99.90
4811;DHT22;2419;51.276;6.472;2023-07-16T09:13:23;20.30;99.90
4811;DHT22;2419;51.276;6.472;2023-07-16T09:15:55;20.60;99.90
4811;DHT22;2419;51.276;6.472;2023-07-16T09:18:24;20.80;99.90
4811;DHT22;2419;51.276;6.472;2023-07-16T09:20:55;21.00;99.90
4811;DHT22;2419;51.276;6.472;2023-07-16T09:23:25;21.00;99.90
4811;DHT22;2419;51.276;6.472;2023-07-16T09:25:55;20.70;99.90
4811;DHT22;2419;51.276;6.472;2023-07-16T09:28:26;20.80;99.90
4811;DHT22;2419;51.276;6.472;2023-07-16T09:30:54;21.00;99.90
4811;DHT22;2419;51.276;6.472;2023-07-16T09:33:23;21.10;99.90
4811;DHT22;2419;51.276;6.472;2023-07-16T09:35:53;20.90;99.90
4811;DHT22;2419;51.276;6.472;2023-07-16T09:38:22;21.10;99.90
4811;DHT22;2419;51.276;6.472;2023-07-16T09:40:52;21.30;99.90
4811;DHT22;2419;51.276;6.472;2023-07-16T09:43:25;21.20;99.90
4811;DHT22;2419;51.276;6.472;2023-07-16T09:45:54;20.90;99.90
4811;DHT22;2419;51.276;6.472;2023-07-16T09:48:23;20.90;99.90
4811;DHT22;2419;51.276;6.472;2023-07-16T09:50:53;20.80;99.90
4811;DHT22;2419;51.276;6.472;2023-07-16T09:53:24;20.70;99.90
4811;DHT22;2419;51.276;6.472;2023-07-16T09:55:55;20.70;99.90
4811;DHT22;2419;51.276;6.472;2023-07-16T09:58:25;21.20;99.90
4811;DHT22;2419;51.276;6.472;2023-07-16T10:00:55;21.60;99.90
4811;DHT22;2419;51.276;6.472;2023-07-16T10:03:23;21.70;99.90
4811;DHT22;2419;51.276;6.472;2023-07-16T10:05:52;21.80;99.90
4811;DHT22;2419;51.276;6.472;2023-07-16T10:08:20;21.80;99.90
4811;DHT22;2419;51.276;6.472;2023-07-16T10:10:53;21.40;99.90
4811;DHT22;2419;51.276;6.472;2023-07-16T10:13:27;21.40;99.90
4811;DHT22;2419;51.276;6.472;2023-07-16T10:15:58;21.60;99.90
4811;DHT22;2419;51.276;6.472;2023-07-16T10:18:29;21.60;99.90
4811;DHT22;2419;51.276;6.472;2023-07-16T10:21:04;21.80;99.40
4811;DHT22;2419;51.276;6.472;2023-07-16T10:23:39;21.90;99.00
4811;DHT22;2419;51.276;6.472;2023-07-16T10:26:10;21.60;99.10
4811;DHT22;2419;51.276;6.472;2023-07-16T10:28:46;21.80;99.90
4811;DHT22;2419;51.276;6.472;2023-07-16T10:31:19;21.90;99.10
4811;DHT22;2419;51.276;6.472;2023-07-16T10:33:59;21.80;99.00
4811;DHT22;2419;51.276;6.472;2023-07-16T10:36:28;21.50;98.70
4811;DHT22;2419;51.276;6.472;2023-07-16T10:39:03;21.80;99.10
4811;DHT22;2419;51.276;6.472;2023-07-16T10:41:32;22.20;99.10
4811;DHT22;2419;51.276;6.472;2023-07-16T10:44:02;22.60;96.30
4811;DHT22;2419;51.276;6.472;2023-07-16T10:46:31;22.30;95.20
4811;DHT22;2419;51.276;6.472;2023-07-16T10:49:01;22.00;96.80
4811;DHT22;2419;51.276;6.472;2023-07-16T10:51:29;22.30;97.30
4811;DHT22;2419;51.276;6.472;2023-07-16T10:53:58;22.20;95.10
4811;DHT22;2419;51.276;6.472;2023-07-16T10:56:26;22.00;95.70
4811;DHT22;2419;51.276;6.472;2023-07-16T10:58:54;21.70;97.10
4811;DHT22;2419;51.276;6.472;2023-07-16T11:01:24;21.70;97.40
4811;DHT22;2419;51.276;6.472;2023-07-16T11:03:52;21.80;98.10
4811;DHT22;2419;51.276;6.472;2023-07-16T11:06:21;21.70;97.40
4811;DHT22;2419;51.276;6.472;2023-07-16T11:08:49;21.80;99.60
4811;DHT22;2419;51.276;6.472;2023-07-16T11:11:28;21.90;97.40
4811;DHT22;2419;51.276;6.472;2023-07-16T11:13:56;21.90;97.30
4811;DHT22;2419;51.276;6.472;2023-07-16T11:16:26;21.90;96.90
4811;DHT22;2419;51.276;6.472;2023-07-16T11:18:55;22.10;96.80
4811;DHT22;2419;51.276;6.472;2023-07-16T11:21:23;22.00;96.70
4811;DHT22;2419;51.276;6.472;2023-07-16T11:23:51;22.20;97.00
4811;DHT22;2419;51.276;6.472;2023-07-16T11:26:20;22.10;96.70
4811;DHT22;2419;51.276;6.472;2023-07-16T11:28:51;21.80;95.90
4811;DHT22;2419;51.276;6.472;2023-07-16T11:31:19;21.90;97.00
4811;DHT22;2419;51.276;6.472;2023-07-16T11:33:52;22.70;95.80
4811;DHT22;2419;51.276;6.472;2023-07-16T11:36:20;22.70;96.70
4811;DHT22;2419;51.276;6.472;2023-07-16T11:38:49;22.30;95.30
4811;DHT22;2419;51.276;6.472;2023-07-16T11:41:20;22.00;97.10
4811;DHT22;2419;51.276;6.472;2023-07-16T11:43:50;22.20;96.40
4811;DHT22;2419;51.276;6.472;2023-07-16T11:46:18;22.30;97.60
4811;DHT22;2419;51.276;6.472;2023-07-16T11:48:47;22.20;97.90
4811;DHT22;2419;51.276;6.472;2023-07-16T11:51:17;22.10;96.30
4811;DHT22;2419;51.276;6.472;2023-07-16T11:53:46;22.00;97.00
4811;DHT22;2419;51.276;6.472;2023-07-16T11:56:14;22.00;97.40
4811;DHT22;2419;51.276;6.472;2023-07-16T11:58:43;22.20;97.40
4811;DHT22;2419;51.276;6.472;2023-07-16T12:01:11;22.10;97.30
4811;DHT22;2419;51.276;6.472;2023-07-16T12:03:41;22.00;96.70
4811;DHT22;2419;51.276;6.472;2023-07-16T12:06:10;22.10;97.90
4811;DHT22;2419;51.276;6.472;2023-07-16T12:08:40;22.30;97.50
4811;DHT22;2419;51.276;6.472;2023-07-16T12:11:08;22.30;97.10
4811;DHT22;2419;51.276;6.472;2023-07-16T12:13:36;22.30;96.90
4811;DHT22;2419;51.276;6.472;2023-07-16T12:16:06;22.30;96.20
4811;DHT22;2419;51.276;6.472;2023-07-16T12:18:34;22.40;97.30
4811;DHT22;2419;51.276;6.472;2023-07-16T12:21:02;22.40;97.50
4811;DHT22;2419;51.276;6.472;2023-07-16T12:23:31;22.40;96.30
4811;DHT22;2419;51.276;6.472;2023-07-16T12:26:01;22.40;96.50
4811;DHT22;2419;51.276;6.472;2023-07-16T12:28:30;22.60;96.80
4811;DHT22;2419;51.276;6.472;2023-07-16T12:30:59;22.80;96.40
4811;DHT22;2419;51.276;6.472;2023-07-16T12:33:27;22.80;95.60
4811;DHT22;2419;51.276;6.472;2023-07-16T12:35:57;22.60;96.00
4811;DHT22;2419;51.276;6.472;2023-07-16T12:38:31;22.30;95.80
4811;DHT22;2419;51.276;6.472;2023-07-16T12:41:09;22.40;95.50
4811;DHT22;2419;51.276;6.472;2023-07-16T12:43:43;22.60;97.10
4811;DHT22;2419;51.276;6.472;2023-07-16T12:46:15;22.70;95.10
4811;DHT22;2419;51.276;6.472;2023-07-16T12:48:48;22.30;95.80
4811;DHT22;2419;51.276;6.472;2023-07-16T12:51:20;22.00;95.90
4811;DHT22;2419;51.276;6.472;2023-07-16T12:53:54;22.00;96.70
4811;DHT22;2419;51.276;6.472;2023-07-16T12:56:30;22.20;97.00
4811;DHT22;2419;51.276;6.472;2023-07-16T12:59:06;22.50;97.30
4811;DHT22;2419;51.276;6.472;2023-07-16T13:01:39;22.50;96.30
4811;DHT22;2419;51.276;6.472;2023-07-16T13:04:12;22.70;95.70
4811;DHT22;2419;51.276;6.472;2023-07-16T13:06:42;23.10;95.50
4811;DHT22;2419;51.276;6.472;2023-07-16T13:09:18;23.10;94.60
4811;DHT22;2419;51.276;6.472;2023-07-16T13:11:53;22.80;94.50
4811;DHT22;2419;51.276;6.472;2023-07-16T13:14:28;23.00;95.00
4811;DHT22;2419;51.276;6.472;2023-07-16T13:17:02;23.10;95.40
4811;DHT22;2419;51.276;6.472;2023-07-16T13:19:37;23.30;93.30
4811;DHT22;2419;51.276;6.472;2023-07-16T13:22:11;23.30;94.40
4811;DHT22;2419;51.276;6.472;2023-07-16T13:24:45;23.30;93.90
4811;DHT22;2419;51.276;6.472;2023-07-16T13:27:23;23.40;93.70
4811;DHT22;2419;51.276;6.472;2023-07-16T13:29:58;23.80;93.60
4811;DHT22;2419;51.276;6.472;2023-07-16T13:32:32;23.80;92.00
4811;DHT22;2419;51.276;6.472;2023-07-16T13:35:07;24.20;90.30
4811;DHT22;2419;51.276;6.472;2023-07-16T13:37:39;24.20;88.00
4811;DHT22;2419;51.276;6.472;2023-07-16T13:40:13;24.10;85.70
4811;DHT22;2419;51.276;6.472;2023-07-16T13:42:47;24.20;86.20
4811;DHT22;2419;51.276;6.472;2023-07-16T13:45:16;24.40;88.10
4811;DHT22;2419;51.276;6.472;2023-07-16T13:47:44;24.30;84.60
4811;DHT22;2419;51.276;6.472;2023-07-16T13:50:12;24.00;81.90
4811;DHT22;2419;51.276;6.472;2023-07-16T13:52:41;24.10;84.30
4811;DHT22;2419;51.276;6.472;2023-07-16T13:55:09;24.10;82.80
4811;DHT22;2419;51.276;6.472;2023-07-16T13:57:38;24.20;83.20
4811;DHT22;2419;51.276;6.472;2023-07-16T14:00:08;24.10;82.20
4811;DHT22;2419;51.276;6.472;2023-07-16T14:02:38;24.20;84.40
4811;DHT22;2419;51.276;6.472;2023-07-16T14:05:07;24.30;84.30
4811;DHT22;2419;51.276;6.472;2023-07-16T14:07:35;24.50;82.20
4811;DHT22;2419;51.276;6.472;2023-07-16T14:10:04;24.60;81.50
4811;DHT22;2419;51.276;6.472;2023-07-16T14:12:32;24.30;83.00
4811;DHT22;2419;51.276;6.472;2023-07-16T14:15:01;24.60;81.20
4811;DHT22;2419;51.276;6.472;2023-07-16T14:17:31;24.40;82.50
4811;DHT22;2419;51.276;6.472;2023-07-16T14:20:00;24.10;80.90
4811;DHT22;2419;51.276;6.472;2023-07-16T14:22:28;23.90;82.90
4811;DHT22;2419;51.276;6.472;2023-07-16T14:24:57;24.00;82.00
4811;DHT22;2419;51.276;6.472;2023-07-16T14:27:26;24.40;81.00
4811;DHT22;2419;51.276;6.472;2023-07-16T14:29:54;24.60;82.00
4811;DHT22;2419;51.276;6.472;2023-07-16T14:32:34;24.40;80.40
4811;DHT22;2419;51.276;6.472;2023-07-16T14:35:02;23.80;81.00
4811;DHT22;2419;51.276;6.472;2023-07-16T14:37:36;23.80;84.90
4811;DHT22;2419;51.276;6.472;2023-07-16T14:40:05;23.80;82.40
4811;DHT22;2419;51.276;6.472;2023-07-16T14:42:35;24.00;83.20
4811;DHT22;2419;51.276;6.472;2023-07-16T14:45:05;23.70;82.90
4811;DHT22;2419;51.276;6.472;2023-07-16T14:47:36;23.70;83.70
4811;DHT22;2419;51.276;6.472;2023-07-16T14:50:05;23.90;85.40
4811;DHT22;2419;51.276;6.472;2023-07-16T14:52:33;24.00;85.40
4811;DHT22;2419;51.276;6.472;2023-07-16T14:55:04;23.90;87.50
4811;DHT22;2419;51.276;6.472;2023-07-16T14:57:32;23.60;87.00
4811;DHT22;2419;51.276;6.472;2023-07-16T15:00:00;23.40;87.40
4811;DHT22;2419;51.276;6.472;2023-07-16T15:02:30;23.40;88.10
4811;DHT22;2419;51.276;6.472;2023-07-16T15:04:59;23.50;88.70
4811;DHT22;2419;51.276;6.472;2023-07-16T15:07:28;23.60;90.10
4811;DHT22;2419;51.276;6.472;2023-07-16T15:09:56;23.70;90.00
4811;DHT22;2419;51.276;6.472;2023-07-16T15:12:24;23.80;89.60
4811;DHT22;2419;51.276;6.472;2023-07-16T15:14:53;23.90;90.40
4811;DHT22;2419;51.276;6.472;2023-07-16T15:17:22;23.80;89.40
4811;DHT22;2419;51.276;6.472;2023-07-16T15:19:51;23.70;88.80
4811;DHT22;2419;51.276;6.472;2023-07-16T15:22:21;23.80;84.60
4811;DHT22;2419;51.276;6.472;2023-07-16T15:24:49;23.80;85.30
4811;DHT22;2419;51.276;6.472;2023-07-16T15:27:18;23.90;87.40
4811;DHT22;2419;51.276;6.472;2023-07-16T15:29:46;23.90;85.30
4811;DHT22;2419;51.276;6.472;2023-07-16T15:32:15;24.00;87.60
4811;DHT22;2419;51.276;6.472;2023-07-16T15:34:43;24.20;84.90
4811;DHT22;2419;51.276;6.472;2023-07-16T15:37:12;24.00;87.60
4811;DHT22;2419;51.276;6.472;2023-07-16T15:39:41;23.80;87.70
4811;DHT22;2419;51.276;6.472;2023-07-16T15:42:10;23.60;85.20
4811;DHT22;2419;51.276;6.472;2023-07-16T15:44:39;23.50;87.70
4811;DHT22;2419;51.276;6.472;2023-07-16T15:47:09;23.40;89.70
4811;DHT22;2419;51.276;6.472;2023-07-16T15:49:37;23.40;88.20
4811;DHT22;2419;51.276;6.472;2023-07-16T15:52:06;23.40;88.50
4811;DHT22;2419;51.276;6.472;2023-07-16T15:54:34;23.30;88.70
4811;DHT22;2419;51.276;6.472;2023-07-16T15:57:04;23.40;89.40
4811;DHT22;2419;51.276;6.472;2023-07-16T15:59:32;23.50;90.60
4811;DHT22;2419;51.276;6.472;2023-07-16T16:02:01;23.40;91.30
4811;DHT22;2419;51.276;6.472;2023-07-16T16:04:29;23.30;90.40
4811;DHT22;2419;51.276;6.472;2023-07-16T16:06:57;23.20;90.00
4811;DHT22;2419;51.276;6.472;2023-07-16T16:09:25;23.20;90.90
4811;DHT22;2419;51.276;6.472;2023-07-16T16:11:54;23.20;92.20
4811;DHT22;2419;51.276;6.472;2023-07-16T16:14:25;23.20;89.20
4811;DHT22;2419;51.276;6.472;2023-07-16T16:16:57;23.10;90.00